Time;durP1;ratioP1;P1;durP2;ratioP2;P2;SDS_P1;SDS_P2;PMS_P1;PMS_P2;Temp;Humidity;BMP_temperature;BMP_pressure;BME280_temperature;BME280_humidity;BME280_pressure;Samples;Min_cycle;Max_cycle;Signal;HPM_P1;HPM_P2
2022/04/27 00:01:36;;;;;;;1.43;1.43;;;;;;;16.78;100.00;99422.16;5111994;28;20209;-70
2022/04/27 00:04:04;;;;;;;1.90;1.90;;;;;;;16.79;100.00;99429.00;5111503;28;20586;-71
2022/04/27 00:06:31;;;;;;;1.20;1.20;;;;;;;16.79;100.00;99428.19;5112751;28;20281;-71
2022/04/27 00:08:58;;;;;;;2.10;1.90;;;;;;;16.74;100.00;99424.97;5112134;28;20210;-71
2022/04/27 00:11:25;;;;;;;2.40;2.27;;;;;;;16.70;100.00;99419.13;5112131;28;20559;-71
2022/04/27 00:13:52;;;;;;;1.90;1.80;;;;;;;16.64;100.00;99422.06;5111218;28;20373;-71
2022/04/27 00:16:19;;;;;;;1.73;1.70;;;;;;;16.53;100.00;99421.78;5108554;28;20199;-71
2022/04/27 00:18:46;;;;;;;1.63;1.60;;;;;;;16.42;100.00;99411.19;5112102;28;20195;-72
2022/04/27 00:21:15;;;;;;;1.50;1.50;;;;;;;16.39;100.00;99419.09;5112132;28;20192;-71
2022/04/27 00:23:41;;;;;;;1.87;1.77;;;;;;;16.36;100.00;99410.66;5110924;28;20811;-71
2022/04/27 00:26:09;;;;;;;1.90;1.90;;;;;;;16.31;100.00;99410.94;5111723;28;20252;-71
2022/04/27 00:28:36;;;;;;;1.53;1.53;;;;;;;16.31;100.00;99413.53;5112119;28;20285;-71
2022/04/27 00:31:03;;;;;;;1.60;1.57;;;;;;;16.27;100.00;99404.25;5111542;28;20234;-71
2022/04/27 00:33:31;;;;;;;2.23;1.60;;;;;;;16.27;100.00;99404.25;5111203;28;20195;-71
2022/04/27 00:35:58;;;;;;;1.60;1.60;;;;;;;16.20;100.00;99408.06;5109868;28;20203;-71
2022/04/27 00:38:26;;;;;;;1.40;1.40;;;;;;;16.18;100.00;99399.56;5112052;28;20705;-71
2022/04/27 00:40:53;;;;;;;1.73;1.63;;;;;;;16.08;100.00;99382.84;5111380;28;20762;-71
2022/04/27 00:43:36;;;;;;;1.50;1.50;;;;;;;16.14;100.00;99387.69;5111157;28;20567;-71
2022/04/27 00:46:03;;;;;;;1.67;1.57;;;;;;;16.15;100.00;99394.56;5111592;28;20195;-71
2022/04/27 00:48:30;;;;;;;1.83;1.73;;;;;;;16.14;100.00;99393.72;5111691;28;20237;-72
2022/04/27 00:51:00;;;;;;;1.43;1.43;;;;;;;16.11;100.00;99393.03;5107775;28;20203;-72
2022/04/27 00:53:29;;;;;;;1.20;1.20;;;;;;;15.97;100.00;99386.00;5110828;28;20248;-71
2022/04/27 00:55:57;;;;;;;1.63;1.43;;;;;;;16.01;100.00;99395.28;5111698;28;20605;-71
2022/04/27 00:58:26;;;;;;;1.53;1.53;;;;;;;16.00;100.00;99401.34;5111456;28;20225;-71
2022/04/27 01:00:53;;;;;;;1.70;1.40;;;;;;;16.00;100.00;99403.09;5111522;28;20195;-71
2022/04/27 01:03:19;;;;;;;3.00;1.20;;;;;;;16.01;100.00;99399.59;5109276;28;20214;-71
2022/04/27 01:05:48;;;;;;;1.43;1.43;;;;;;;15.98;100.00;99394.59;5109375;28;20192;-71
2022/04/27 01:08:16;;;;;;;1.43;1.43;;;;;;;15.98;100.00;99392.00;5110864;28;20622;-71
2022/04/27 01:10:47;;;;;;;1.50;1.50;;;;;;;15.84;100.00;99374.63;5111300;28;20195;-71
2022/04/27 01:13:14;;;;;;;1.50;1.50;;;;;;;15.91;100.00;99393.25;5110736;28;20196;-71
2022/04/27 01:15:41;;;;;;;2.00;2.00;;;;;;;15.90;100.00;99388.97;5111341;28;20734;-71
2022/04/27 01:18:09;;;;;;;1.90;1.80;;;;;;;15.86;100.00;99392.66;5111088;28;20606;-71
2022/04/27 01:20:38;;;;;;;1.37;1.27;;;;;;;15.81;100.00;99384.28;5109922;28;20209;-71
2022/04/27 01:23:07;;;;;;;1.83;1.73;;;;;;;15.74;100.00;99379.44;5110673;28;20218;-71
2022/04/27 01:25:49;;;;;;;1.50;1.50;;;;;;;15.72;100.00;99373.53;5110065;28;20207;-71
2022/04/27 01:28:18;;;;;;;1.20;1.20;;;;;;;15.60;100.00;99355.22;5110319;28;20198;-72
2022/04/27 01:30:45;;;;;;;1.30;1.30;;;;;;;15.65;100.00;99373.91;5109915;28;20190;-71
2022/04/27 01:33:12;;;;;;;1.40;1.40;;;;;;;15.68;100.00;99377.16;5110608;28;20217;-70
2022/04/27 01:35:41;;;;;;;1.20;1.20;;;;;;;15.66;100.00;99380.75;5109548;28;20202;-72
2022/04/27 01:38:08;;;;;;;1.40;1.40;;;;;;;15.61;100.00;99377.53;5114622;28;20259;-71
2022/04/27 01:40:36;;;;;;;1.50;1.50;;;;;;;15.60;100.00;99381.91;5114442;28;20226;-71
2022/04/27 01:43:04;;;;;;;1.60;1.50;;;;;;;15.42;100.00;99361.28;5112875;28;20259;-71
2022/04/27 01:45:31;;;;;;;1.70;1.70;;;;;;;15.44;100.00;99378.41;5112362;28;20203;-71
2022/04/27 01:47:58;;;;;;;1.90;1.80;;;;;;;15.38;100.00;99381.25;5106573;28;20210;-71
2022/04/27 01:50:25;;;;;;;1.93;1.93;;;;;;;15.25;100.00;99375.88;5111360;28;20251;-71
2022/04/27 01:55:37;;;;;;;1.73;1.73;;;;;;;15.09;100.00;99368.94;5110744;28;20211;-71
2022/04/27 01:58:04;;;;;;;1.70;1.70;;;;;;;15.00;100.00;99353.91;5112656;28;20206;-71
2022/04/27 02:00:31;;;;;;;1.87;1.77;;;;;;;15.00;100.00;99362.50;5112985;28;20195;-71
2022/04/27 02:02:59;;;;;;;1.80;1.70;;;;;;;14.98;100.00;99368.66;5110079;28;20214;-70
2022/04/27 02:05:26;;;;;;;2.13;2.03;;;;;;;15.00;100.00;99359.06;5113107;28;20209;-70
2022/04/27 02:07:54;;;;;;;1.70;1.70;;;;;;;14.93;100.00;99357.69;5113512;28;20203;-71
2022/04/27 02:10:21;;;;;;;2.00;1.87;;;;;;;14.95;100.00;99366.22;5113177;28;20205;-69
2022/04/27 02:12:48;;;;;;;1.97;1.87;;;;;;;14.94;100.00;99364.53;5113623;28;20663;-70
2022/04/27 02:15:15;;;;;;;2.30;1.93;;;;;;;14.96;100.00;99368.72;5113353;28;20194;-71
2022/04/27 02:17:42;;;;;;;2.07;1.97;;;;;;;14.96;100.00;99362.75;5112776;28;20194;-71
2022/04/27 02:20:10;;;;;;;2.30;2.00;;;;;;;14.93;100.00;99361.13;5112151;28;20209;-71
2022/04/27 02:22:37;;;;;;;2.87;2.07;;;;;;;14.90;100.00;99363.00;5112872;28;20191;-71
2022/04/27 02:25:06;;;;;;;2.00;1.90;;;;;;;14.88;100.00;99359.69;5112922;28;20722;-71
2022/04/27 02:27:33;;;;;;;2.07;1.97;;;;;;;14.84;100.00;99352.97;5112426;28;20562;-71
2022/04/27 02:30:00;;;;;;;1.87;1.87;;;;;;;14.91;100.00;99364.69;5113105;28;20554;-71
2022/04/27 02:32:27;;;;;;;3.30;2.20;;;;;;;14.91;100.00;99362.09;5113093;28;20570;-71
2022/04/27 02:34:54;;;;;;;1.80;1.80;;;;;;;14.92;100.00;99356.88;5112720;28;20662;-71
2022/04/27 02:37:21;;;;;;;2.10;2.00;;;;;;;14.91;100.00;99360.38;5110996;28;20194;-71
2022/04/27 02:39:48;;;;;;;2.43;2.33;;;;;;;14.83;100.00;99356.50;5101556;28;254748;-71
2022/04/27 02:42:17;;;;;;;2.10;2.00;;;;;;;14.69;100.00;99359.72;5102558;28;20206;-71
2022/04/27 02:44:44;;;;;;;2.40;2.30;;;;;;;14.55;100.00;99362.09;5113753;28;20211;-70
2022/04/27 02:47:11;;;;;;;2.30;2.20;;;;;;;14.46;100.00;99358.22;5112427;28;20547;-71
2022/04/27 02:52:22;;;;;;;2.27;2.17;;;;;;;14.40;100.00;99353.34;5114006;28;20204;-71
2022/04/27 02:54:49;;;;;;;2.50;2.40;;;;;;;14.42;100.00;99348.09;5113693;28;20202;-70
2022/04/27 02:57:17;;;;;;;2.27;2.17;;;;;;;14.45;100.00;99351.38;5113438;28;20195;-71
2022/04/27 02:59:44;;;;;;;2.50;2.40;;;;;;;14.48;100.00;99353.81;5113762;28;20205;-71
2022/04/27 03:02:11;;;;;;;2.70;2.60;;;;;;;14.47;100.00;99344.44;5113775;28;20225;-71
2022/04/27 03:04:38;;;;;;;2.80;2.70;;;;;;;14.56;100.00;99363.78;5113639;28;20210;-71
2022/04/27 03:07:05;;;;;;;2.60;2.43;;;;;;;14.58;100.00;99357.66;5112881;28;20199;-71
2022/04/27 03:09:32;;;;;;;2.37;2.27;;;;;;;14.58;100.00;99357.66;5113822;28;20555;-71
2022/04/27 03:11:59;;;;;;;2.43;2.33;;;;;;;14.60;100.00;99360.97;5113379;28;20203;-71
2022/04/27 03:14:28;;;;;;;2.63;2.53;;;;;;;14.62;100.00;99359.19;5113454;28;20186;-70
2022/04/27 03:16:56;;;;;;;2.50;2.40;;;;;;;14.54;100.00;99358.69;5112604;28;20199;-71
2022/04/27 03:19:23;;;;;;;2.40;2.30;;;;;;;14.47;100.00;99359.91;5113155;28;20209;-70
2022/04/27 03:21:50;;;;;;;3.03;2.93;;;;;;;14.35;100.00;99360.44;5113237;28;20216;-70
2022/04/27 03:24:17;;;;;;;2.40;2.30;;;;;;;14.30;100.00;99372.69;5107609;28;20237;-71
2022/04/27 03:26:44;;;;;;;2.70;2.53;;;;;;;14.26;100.00;99371.16;5111269;28;20201;-70
2022/04/27 03:29:11;;;;;;;2.47;2.37;;;;;;;14.22;100.00;99373.97;5112900;28;20213;-70
2022/04/27 03:31:39;;;;;;;2.10;2.00;;;;;;;14.18;100.00;99370.69;5113025;28;20195;-70
2022/04/27 03:34:06;;;;;;;2.40;2.30;;;;;;;14.15;100.00;99374.22;5113225;28;20195;-71
2022/04/27 03:36:33;;;;;;;2.27;2.17;;;;;;;14.12;100.00;99381.25;5112025;28;20654;-70
2022/04/27 03:39:00;;;;;;;1.70;1.70;;;;;;;14.13;100.00;99385.50;5111722;28;20693;-69
2022/04/27 03:41:28;;;;;;;3.63;1.93;;;;;;;14.15;100.00;99373.41;5110520;28;20218;-71
2022/04/27 03:43:55;;;;;;;2.20;2.10;;;;;;;14.17;100.00;99381.91;5110211;28;20214;-71
2022/04/27 03:46:22;;;;;;;2.27;2.17;;;;;;;14.10;100.00;99376.19;5109921;28;20683;-70
2022/04/27 03:48:52;;;;;;;1.87;1.87;;;;;;;14.19;100.00;99383.50;5113052;28;20632;-71
2022/04/27 03:51:19;;;;;;;2.17;1.70;;;;;;;14.23;100.00;99386.78;5111833;28;20234;-71
2022/04/27 03:53:45;;;;;;;1.43;1.43;;;;;;;14.25;100.00;99379.78;5111402;28;20191;-70
2022/04/27 03:56:12;;;;;;;2.33;2.13;;;;;;;14.32;100.00;99390.66;5110218;28;20211;-70
2022/04/27 03:58:39;;;;;;;2.20;2.13;;;;;;;14.35;100.00;99391.41;5110941;28;20194;-71
2022/04/27 04:01:06;;;;;;;2.40;2.30;;;;;;;14.40;100.00;99398.94;5110327;28;20205;-70
2022/04/27 04:03:33;;;;;;;2.07;2.00;;;;;;;14.36;100.00;99398.25;5110203;28;20191;-70
2022/04/27 04:06:01;;;;;;;2.17;2.07;;;;;;;14.45;100.00;99408.13;5109866;27;20561;-70
2022/04/27 04:08:28;;;;;;;4.80;2.43;;;;;;;14.35;100.00;99383.66;5110075;28;20586;-71
2022/04/27 04:10:55;;;;;;;2.73;2.53;;;;;;;14.56;100.00;99416.22;5109871;28;20198;-70
2022/04/27 04:13:22;;;;;;;2.20;2.10;;;;;;;14.60;100.00;99412.56;5108245;28;20218;-70
2022/04/27 04:15:49;;;;;;;2.53;2.43;;;;;;;14.62;100.00;99405.63;5111103;28;20199;-70
2022/04/27 04:18:16;;;;;;;2.60;2.50;;;;;;;14.72;100.00;99418.94;5108893;28;20230;-70
2022/04/27 04:20:44;;;;;;;2.70;2.37;;;;;;;14.70;100.00;99424.16;5110107;28;20202;-70
2022/04/27 04:23:12;;;;;;;5.07;2.30;;;;;;;14.80;100.00;99418.59;5111042;28;20743;-70
2022/04/27 04:28:32;;;;;;;3.30;3.20;;;;;;;15.05;100.00;99427.66;5110136;28;20206;-70
2022/04/27 04:31:01;;;;;;;3.47;3.17;;;;;;;15.22;100.00;99426.84;5111575;28;20201;-70
2022/04/27 04:33:28;;;;;;;2.97;2.87;;;;;;;15.41;100.00;99421.63;5111688;28;20202;-70
2022/04/27 04:35:55;;;;;;;3.53;3.07;;;;;;;15.59;100.00;99424.16;5111765;28;20203;-70
2022/04/27 04:38:24;;;;;;;12.43;3.43;;;;;;;15.82;100.00;99433.34;5111258;28;20205;-70
2022/04/27 04:40:52;;;;;;;3.07;2.97;;;;;;;16.03;100.00;99437.38;5111669;28;20705;-71
2022/04/27 04:43:19;;;;;;;3.00;2.90;;;;;;;16.21;100.00;99440.78;5111881;28;20195;-71
2022/04/27 04:45:46;;;;;;;2.73;2.63;;;;;;;16.36;100.00;99432.22;5109910;28;20238;-71
2022/04/27 04:48:13;;;;;;;2.73;2.53;;;;;;;16.48;99.91;99441.91;5110773;28;20195;-70
2022/04/27 04:50:39;;;;;;;2.93;2.80;;;;;;;16.51;99.61;99431.38;5111380;28;20582;-71
2022/04/27 04:53:07;;;;;;;2.13;2.03;;;;;;;16.67;99.34;99445.19;5111506;28;20601;-71
2022/04/27 04:55:35;;;;;;;2.73;2.63;;;;;;;16.84;100.00;99444.28;5110297;28;20187;-71
2022/04/27 04:58:02;;;;;;;3.27;3.10;;;;;;;17.05;99.17;99450.88;5109954;28;20195;-71
2022/04/27 05:00:29;;;;;;;3.73;3.53;;;;;;;17.18;97.11;99454.47;5111246;28;20194;-70
2022/04/27 05:02:56;;;;;;;3.40;3.20;;;;;;;17.20;96.48;99449.16;5111003;28;20203;-71
2022/04/27 05:05:23;;;;;;;3.20;2.90;;;;;;;17.26;96.33;99449.66;5110918;28;20222;-70
2022/04/27 05:07:50;;;;;;;3.23;2.80;;;;;;;17.43;96.26;99459.06;5109388;28;20198;-70
2022/04/27 05:10:17;;;;;;;3.10;3.00;;;;;;;17.54;95.98;99459.31;5111159;28;20693;-70
2022/04/27 05:12:45;;;;;;;3.37;3.17;;;;;;;17.69;95.33;99458.44;5110164;28;20218;-70
2022/04/27 05:15:12;;;;;;;6.80;3.90;;;;;;;17.78;95.35;99452.72;5111261;28;20191;-70
2022/04/27 05:17:40;;;;;;;4.43;2.87;;;;;;;17.96;94.51;99455.16;5110310;28;20194;-71
2022/04/27 05:20:08;;;;;;;3.20;3.00;;;;;;;18.05;93.78;99446.81;5110915;28;20945;-71
2022/04/27 05:22:39;;;;;;;3.80;3.50;;;;;;;18.23;93.49;99443.09;5108842;28;20347;-71
2022/04/27 05:25:08;;;;;;;3.23;3.03;;;;;;;18.28;92.93;99439.31;5110702;28;20210;-71
2022/04/27 05:27:35;;;;;;;3.33;3.20;;;;;;;18.37;92.38;99456.09;5109166;28;20206;-71
2022/04/27 05:32:49;;;;;;;2.27;2.17;;;;;;;18.58;92.75;99453.97;5111117;28;20201;-70
2022/04/27 05:35:16;;;;;;;2.07;1.97;;;;;;;18.69;91.40;99452.38;5110676;28;20186;-71
2022/04/27 05:37:44;;;;;;;3.10;2.17;;;;;;;18.79;90.93;99458.66;5109409;28;20245;-70
2022/04/27 05:40:12;;;;;;;2.00;1.90;;;;;;;18.85;90.05;99460.88;5110450;28;20592;-71
2022/04/27 05:42:39;;;;;;;1.97;1.90;;;;;;;18.98;91.69;99463.53;5110478;28;20198;-71
2022/04/27 05:45:08;;;;;;;2.47;2.37;;;;;;;19.06;90.40;99470.84;5105725;28;20214;-69
2022/04/27 05:47:36;;;;;;;2.17;1.93;;;;;;;19.00;92.18;99466.03;5107377;28;20195;-70
2022/04/27 05:50:04;;;;;;;1.90;1.80;;;;;;;19.24;92.05;99465.28;5109024;28;20213;-69
2022/04/27 05:52:31;;;;;;;1.93;1.83;;;;;;;19.41;90.39;99472.03;5110337;28;20191;-68
2022/04/27 05:54:58;;;;;;;4.70;2.00;;;;;;;19.69;90.04;99473.66;5110064;28;20562;-66
2022/04/27 05:57:25;;;;;;;2.30;2.20;;;;;;;19.83;87.23;99474.41;5107522;28;20198;-66
2022/04/27 05:59:52;;;;;;;2.83;2.50;;;;;;;19.89;87.19;99461.00;5106540;28;20678;-66
2022/04/27 06:02:20;;;;;;;2.07;1.97;;;;;;;20.04;86.98;99471.28;5106064;28;20269;-66
2022/04/27 06:04:47;;;;;;;3.73;3.53;;;;;;;20.22;87.53;99470.06;5109686;28;20685;-69
2022/04/27 06:07:14;;;;;;;3.77;3.57;;;;;;;20.49;86.96;99472.53;5110500;28;20210;-70
2022/04/27 06:09:41;;;;;;;3.77;3.57;;;;;;;20.60;85.47;99476.06;5109408;28;20213;-69
2022/04/27 06:12:08;;;;;;;3.10;2.93;;;;;;;20.77;85.19;99467.91;5109101;28;20245;-69
2022/04/27 06:14:36;;;;;;;2.30;2.20;;;;;;;20.99;83.72;99472.41;5109621;28;20191;-70
2022/04/27 06:17:04;;;;;;;3.27;1.87;;;;;;;21.22;81.93;99483.84;5109669;28;20239;-70
2022/04/27 06:19:32;;;;;;;1.30;1.30;;;;;;;21.37;80.88;99482.72;5108739;28;20256;-70
2022/04/27 06:21:59;;;;;;;1.80;1.70;;;;;;;21.59;80.50;99485.41;5109224;28;20199;-67
2022/04/27 06:24:27;;;;;;;1.50;1.30;;;;;;;21.89;77.36;99490.16;5111238;28;20227;-67
2022/04/27 06:26:54;;;;;;;1.50;1.50;;;;;;;22.17;78.26;99486.28;5112413;28;20205;-65
2022/04/27 06:29:21;;;;;;;1.43;1.43;;;;;;;22.11;75.06;99468.47;5111070;28;20200;-65
2022/04/27 06:31:48;;;;;;;1.97;1.50;;;;;;;22.33;74.05;99489.38;5112497;28;20199;-67
2022/04/27 06:34:15;;;;;;;2.97;1.60;;;;;;;22.57;73.39;99491.88;5111641;28;20204;-67
2022/04/27 06:36:43;;;;;;;1.50;1.37;;;;;;;22.90;71.19;99490.09;5113814;28;20738;-71
2022/04/27 06:39:14;;;;;;;1.93;1.63;;;;;;;23.09;69.41;99499.09;5113325;28;20206;-68
2022/04/27 06:41:42;;;;;;;1.30;1.20;;;;;;;23.36;69.71;99497.69;5113168;28;20232;-68
2022/04/27 06:44:08;;;;;;;1.30;1.23;;;;;;;23.51;69.52;99496.50;5112113;28;20221;-68
2022/04/27 06:46:35;;;;;;;1.30;1.30;;;;;;;23.62;68.33;99495.59;5110229;28;20210;-68
2022/04/27 06:49:02;;;;;;;1.67;1.57;;;;;;;23.89;66.78;99492.47;5110376;28;20205;-68
2022/04/27 06:51:29;;;;;;;2.50;2.40;;;;;;;24.11;66.87;99504.59;5111953;27;20198;-68
2022/04/27 06:53:57;;;;;;;1.17;1.17;;;;;;;24.32;65.44;99500.22;5112573;28;20205;-68
2022/04/27 06:56:24;;;;;;;1.33;1.30;;;;;;;24.50;65.06;99493.38;5113007;28;20217;-69
2022/04/27 06:58:51;;;;;;;2.33;1.30;;;;;;;24.77;63.69;99500.66;5113156;28;20555;-68
2022/04/27 07:01:18;;;;;;;1.30;1.30;;;;;;;24.89;63.30;99497.81;5112934;28;20207;-68
2022/04/27 07:03:45;;;;;;;1.00;1.00;;;;;;;25.02;64.80;99500.19;5112940;27;20199;-68
2022/04/27 07:06:13;;;;;;;1.70;1.60;;;;;;;24.90;62.75;99482.94;5111845;28;20678;-68
2022/04/27 07:08:40;;;;;;;1.70;1.60;;;;;;;24.92;65.36;99487.06;5108636;28;20205;-68
2022/04/27 07:11:08;;;;;;;1.60;1.50;;;;;;;25.12;64.46;99494.97;5112412;28;20217;-68
2022/04/27 07:13:35;;;;;;;1.73;1.63;;;;;;;25.08;62.64;99499.66;5113295;28;20277;-69
2022/04/27 07:16:03;;;;;;;1.40;1.30;;;;;;;25.26;61.15;99505.09;5112668;28;20199;-68
2022/04/27 07:18:30;;;;;;;1.43;1.30;;;;;;;25.40;62.28;99509.91;5112213;28;20203;-68
2022/04/27 07:20:58;;;;;;;1.60;1.50;;;;;;;25.55;60.69;99511.22;5111904;28;20686;-68
2022/04/27 07:23:25;;;;;;;1.17;1.17;;;;;;;25.77;59.98;99516.19;5112040;28;20209;-68
2022/04/27 07:25:51;;;;;;;3.07;1.37;;;;;;;25.84;58.97;99512.03;5112602;28;20218;-69
2022/04/27 07:28:20;;;;;;;1.57;1.57;;;;;;;25.74;60.25;99505.94;5112354;28;20205;-68
2022/04/27 07:30:46;;;;;;;2.03;1.90;;;;;;;25.63;61.27;99508.72;5111833;28;20203;-68
2022/04/27 07:33:13;;;;;;;2.37;1.60;;;;;;;25.66;59.01;99508.44;5110710;28;20203;-67
2022/04/27 07:35:40;;;;;;;3.23;1.57;;;;;;;25.48;60.77;99507.44;5110760;28;20198;-74
2022/04/27 07:38:07;;;;;;;2.10;2.00;;;;;;;25.63;59.43;99503.44;5111237;28;20199;-67
2022/04/27 07:40:34;;;;;;;1.80;1.70;;;;;;;25.64;58.48;99504.28;5108973;28;20238;-67
2022/04/27 07:43:01;;;;;;;1.97;1.77;;;;;;;25.79;59.20;99497.63;5111558;27;20214;-68
2022/04/27 07:45:29;;;;;;;2.33;1.67;;;;;;;25.61;58.45;99471.25;5111663;27;20260;-69
2022/04/27 07:47:56;;;;;;;2.33;2.23;;;;;;;25.60;58.23;99511.59;5112563;28;20248;-68
2022/04/27 07:50:23;;;;;;;2.20;2.00;;;;;;;25.65;58.59;99508.59;5112170;28;20199;-68
2022/04/27 07:52:50;;;;;;;1.80;1.70;;;;;;;25.79;57.30;99501.09;5112082;28;20202;-68
2022/04/27 07:55:17;;;;;;;2.60;2.40;;;;;;;25.87;58.46;99501.22;5112292;28;20195;-68
2022/04/27 07:57:45;;;;;;;1.80;1.77;;;;;;;25.70;56.85;99501.94;5114202;27;20205;-68
2022/04/27 08:00:13;;;;;;;2.60;2.50;;;;;;;25.37;57.95;99499.69;5111659;28;20202;-67
2022/04/27 08:02:41;;;;;;;2.40;2.30;;;;;;;25.68;58.60;99506.50;5109218;28;20625;-67
2022/04/27 08:05:09;;;;;;;3.63;2.13;;;;;;;25.84;61.64;99491.00;5111146;28;20224;-67
2022/04/27 08:07:38;;;;;;;2.40;2.03;;;;;;;26.03;60.72;99500.66;5108980;28;20205;-67
2022/04/27 08:10:12;;;;;;;2.40;2.20;;;;;;;26.26;61.24;99501.19;5108726;28;20194;-67
2022/04/27 08:12:40;;;;;;;1.93;1.80;;;;;;;26.38;59.68;99500.03;5109241;28;20672;-68
2022/04/27 08:15:09;;;;;;;2.23;2.07;;;;;;;26.58;58.85;99491.09;5109211;28;20679;-68
2022/04/27 08:17:36;;;;;;;2.90;1.87;;;;;;;26.81;58.66;99491.56;5103333;28;20205;-68
2022/04/27 08:22:50;;;;;;;2.90;2.40;;;;;;;26.99;56.67;99487.97;5110951;28;20274;-68
2022/04/27 08:25:17;;;;;;;1.83;1.73;;;;;;;26.82;58.11;99487.97;5110671;28;20712;-68
2022/04/27 08:27:43;;;;;;;2.60;2.40;;;;;;;26.84;57.72;99486.84;5107757;28;20209;-68
2022/04/27 08:30:11;;;;;;;2.23;2.03;;;;;;;26.79;57.63;99489.03;5108790;28;20651;-67
2022/04/27 08:32:38;;;;;;;2.00;1.90;;;;;;;26.83;58.04;99486.97;5110183;28;20213;-68
2022/04/27 08:35:07;;;;;;;2.13;2.03;;;;;;;27.07;54.75;99482.81;5109991;28;20202;-68
2022/04/27 08:37:34;;;;;;;3.87;2.03;;;;;;;27.06;57.13;99481.16;5109939;28;20213;-68
2022/04/27 08:40:01;;;;;;;2.10;2.00;;;;;;;27.13;57.45;99476.97;5108527;28;20226;-68
2022/04/27 08:42:28;;;;;;;2.60;2.23;;;;;;;27.26;55.25;99486.28;5110836;28;20197;-68
2022/04/27 08:44:55;;;;;;;1.93;1.83;;;;;;;27.35;55.72;99469.56;5108824;28;20267;-68
2022/04/27 08:47:24;;;;;;;2.40;2.10;;;;;;;27.49;53.44;99477.00;5107383;28;20301;-68
2022/04/27 08:49:51;;;;;;;3.00;2.80;;;;;;;27.32;53.04;99477.78;5110784;28;20200;-68
2022/04/27 08:52:22;;;;;;;2.60;2.20;;;;;;;27.23;54.17;99471.63;5111392;28;20208;-68
2022/04/27 08:54:49;;;;;;;2.13;2.00;;;;;;;27.17;53.32;99466.13;5108389;28;20209;-68
2022/04/27 08:57:16;;;;;;;3.80;2.20;;;;;;;27.12;51.19;99467.41;5109217;28;20202;-68
2022/04/27 08:59:43;;;;;;;2.33;2.10;;;;;;;27.30;48.79;99467.41;5109767;28;20199;-68
2022/04/27 09:02:26;;;;;;;1.97;1.87;;;;;;;27.48;50.29;99473.53;5108863;27;20669;-68
2022/04/27 09:05:13;;;;;;;4.43;2.97;;;;;;;27.28;52.91;99458.00;5108383;28;20201;-68
2022/04/27 09:07:43;;;;;;;2.10;2.00;;;;;;;27.53;51.82;99462.50;5109387;28;20867;-69
2022/04/27 09:10:11;;;;;;;2.30;2.10;;;;;;;27.58;53.36;99465.53;5109730;28;20563;-66
2022/04/27 09:12:45;;;;;;;4.10;2.00;;;;;;;27.42;49.58;99468.00;5107632;28;20551;-68
2022/04/27 09:15:14;;;;;;;1.87;1.77;;;;;;;27.26;52.24;99459.97;5109486;28;20206;-69
2022/04/27 09:23:23;;;;;;;2.20;2.00;;;;;;;27.48;53.14;99449.81;5108182;28;20741;-69
2022/04/27 09:25:51;;;;;;;4.30;2.20;;;;;;;26.97;52.34;99455.75;5106074;28;20666;-68
2022/04/27 09:28:19;;;;;;;2.43;2.33;;;;;;;26.58;52.83;99433.25;5102595;28;20218;-68
2022/04/27 09:30:49;;;;;;;2.20;1.97;;;;;;;26.45;54.78;99443.28;5108438;28;20575;-69
2022/04/27 09:33:30;;;;;;;2.93;2.07;;;;;;;25.75;55.34;99439.31;5108471;28;20195;-68
2022/04/27 09:35:58;;;;;;;2.43;2.23;;;;;;;25.77;56.89;99445.25;5107976;28;20616;-68
2022/04/27 09:38:26;;;;;;;3.33;2.10;;;;;;;25.78;56.96;99448.72;5108365;28;20666;-70
2022/04/27 09:40:56;;;;;;;2.27;2.17;;;;;;;25.59;57.44;99444.31;5109575;28;20227;-68
2022/04/27 09:43:42;;;;;;;3.70;2.50;;;;;;;25.53;56.29;99444.88;5106558;28;20299;-69
2022/04/27 09:46:17;;;;;;;2.80;2.30;;;;;;;25.75;56.88;99439.31;5105728;28;20234;-68
2022/04/27 09:48:46;;;;;;;6.23;2.27;;;;;;;25.53;55.69;99434.38;5108811;28;20289;-69
2022/04/27 09:51:14;;;;;;;2.20;2.00;;;;;;;25.71;56.88;99432.69;5109391;28;20685;-68
2022/04/27 09:53:43;;;;;;;2.60;2.40;;;;;;;25.64;55.07;99441.28;5108994;28;20201;-68
2022/04/27 09:56:13;;;;;;;2.10;2.03;;;;;;;25.46;56.81;99434.06;5108896;28;20259;-69
2022/04/27 09:58:44;;;;;;;4.53;2.10;;;;;;;25.43;57.78;99423.00;5104116;27;20234;-68
2022/04/27 10:01:14;;;;;;;3.53;2.17;;;;;;;25.62;56.93;99437.97;5108964;28;20200;-69
2022/04/27 10:03:45;;;;;;;1.90;1.80;;;;;;;25.67;56.96;99430.47;5110376;28;20289;-68
2022/04/27 10:06:12;;;;;;;2.70;2.50;;;;;;;25.28;58.02;99427.03;5109625;28;20321;-71
2022/04/27 10:08:40;;;;;;;2.20;2.03;;;;;;;25.16;58.76;99426.34;5111087;28;20590;-69
2022/04/27 10:11:12;;;;;;;1.90;1.67;;;;;;;25.05;58.93;99424.69;5113381;28;20203;-68
2022/04/27 10:13:40;;;;;;;2.27;2.17;;;;;;;25.04;60.32;99432.72;5113565;28;20605;-70
2022/04/27 10:16:08;;;;;;;1.90;1.80;;;;;;;25.15;61.10;99422.06;5112659;28;20211;-70
2022/04/27 10:18:34;;;;;;;2.17;2.07;;;;;;;25.37;58.14;99419.16;5112007;28;20206;-70
2022/04/27 10:21:04;;;;;;;1.90;1.80;;;;;;;25.36;58.40;99419.31;5111360;28;20202;-69
2022/04/27 10:23:32;;;;;;;3.40;1.87;;;;;;;25.18;57.28;99418.34;5110754;28;20646;-68
2022/04/27 10:26:15;;;;;;;2.03;1.93;;;;;;;25.21;59.82;99413.63;5110192;28;20313;-69
2022/04/27 10:28:47;;;;;;;3.93;1.57;;;;;;;25.10;56.77;99420.81;5108134;28;20677;-69
2022/04/27 10:31:14;;;;;;;2.30;2.10;;;;;;;25.26;56.77;99415.84;5111373;28;20199;-70
2022/04/27 10:33:51;;;;;;;10.87;2.57;;;;;;;25.25;58.69;99414.19;5112447;28;20650;-69
2022/04/27 10:36:24;;;;;;;2.33;2.10;;;;;;;25.49;59.03;99396.22;5110750;27;20202;-70
2022/04/27 10:39:26;;;;;;;1.97;1.87;;;;;;;25.47;57.19;99403.41;5113759;28;20578;-70
2022/04/27 10:42:33;;;;;;;6.80;3.43;;;;;;;25.37;56.90;99405.19;5049596;28;20211;-70
2022/04/27 10:45:10;;;;;;;2.10;1.90;;;;;;;25.41;59.97;99398.72;5048148;28;20208;-70
2022/04/27 10:47:41;;;;;;;2.27;2.17;;;;;;;25.61;58.76;99392.50;5096758;28;20229;-70
2022/04/27 10:50:28;;;;;;;2.13;2.00;;;;;;;25.57;56.45;99391.94;5108533;28;20202;-69
2022/04/27 10:52:57;;;;;;;2.90;2.27;;;;;;;25.43;57.85;99388.88;5113774;28;20209;-66
2022/04/27 10:55:45;;;;;;;1.70;1.60;;;;;;;25.52;57.57;99388.09;5112881;28;20631;-66
2022/04/27 10:58:19;;;;;;;2.00;1.90;;;;;;;25.71;57.37;99372.31;5111114;28;20751;-66
2022/04/27 11:01:27;;;;;;;1.80;1.70;;;;;;;25.81;57.50;99369.66;5113001;28;20199;-67
2022/04/27 11:03:59;;;;;;;1.90;1.50;;;;;;;25.72;56.13;99376.56;5108848;28;20198;-67
2022/04/27 11:06:26;;;;;;;2.50;1.60;;;;;;;25.66;54.88;99374.50;5111311;28;20214;-68
2022/04/27 11:09:13;;;;;;;1.63;1.53;;;;;;;25.37;56.72;99379.78;5111830;28;20276;-67
2022/04/27 11:11:55;;;;;;;1.43;1.33;;;;;;;25.28;56.72;99350.94;5102491;27;20203;-68
2022/04/27 11:14:34;;;;;;;1.50;1.50;;;;;;;25.45;54.90;99371.22;5112895;28;20227;-68
2022/04/27 11:17:02;;;;;;;1.03;1.03;;;;;;;25.40;51.85;99376.03;5114510;27;20217;-68
2022/04/27 11:19:37;;;;;;;2.57;2.37;;;;;;;25.73;54.27;99367.72;5115300;28;20241;-68
2022/04/27 11:22:15;;;;;;;1.40;1.30;;;;;;;25.79;49.72;99376.81;5103425;28;20202;-68
2022/04/27 11:24:44;;;;;;;3.13;1.10;;;;;;;25.82;49.97;99371.28;5106882;28;20730;-68
2022/04/27 11:27:13;;;;;;;1.57;1.47;;;;;;;25.93;52.00;99357.97;5110486;28;20583;-68
2022/04/27 11:29:42;;;;;;;1.27;1.17;;;;;;;26.10;49.52;99360.69;5109617;28;20206;-67
2022/04/27 11:32:10;;;;;;;2.40;1.67;;;;;;;26.18;51.87;99364.41;5114042;28;20252;-68
2022/04/27 11:34:38;;;;;;;0.93;0.87;;;;;;;26.15;49.69;99352.34;5112048;28;20290;-69
2022/04/27 11:37:16;;;;;;;2.33;1.20;;;;;;;26.09;49.48;99356.41;5113226;28;20196;-68
2022/04/27 11:39:45;;;;;;;4.07;1.20;;;;;;;25.99;49.75;99350.34;5111446;28;20202;-69
2022/04/27 11:42:13;;;;;;;7.63;1.20;;;;;;;25.92;50.51;99344.00;5113189;28;20282;-68
2022/04/27 11:44:42;;;;;;;1.00;1.00;;;;;;;26.19;51.03;99342.41;5112690;28;20195;-69
2022/04/27 11:47:30;;;;;;;1.80;1.17;;;;;;;26.09;51.33;99327.50;5113234;28;20210;-68
2022/04/27 11:49:58;;;;;;;1.10;1.10;;;;;;;26.11;49.84;99330.78;5110198;28;20194;-68
2022/04/27 11:52:26;;;;;;;1.50;1.40;;;;;;;26.10;50.07;99331.78;5111137;28;20556;-68
2022/04/27 11:54:53;;;;;;;1.27;1.17;;;;;;;25.93;49.75;99295.78;5111052;28;20229;-67
2022/04/27 11:57:22;;;;;;;2.13;1.57;;;;;;;26.03;49.73;99314.94;5112591;28;20252;-69